sensor_id;sensor_type;location;lat;lon;timestamp;pressure;altitude;pressure_sealevel;temperature;humidity
21203;BME280;10759;51.982;9.232;2023-07-29T00:00:54;99572.59;;;18.26;100.00
21203;BME280;10759;51.982;9.232;2023-07-29T00:03:23;99581.84;;;18.23;100.00
21203;BME280;10759;51.982;9.232;2023-07-29T00:05:51;99582.22;;;18.18;100.00
21203;BME280;10759;51.982;9.232;2023-07-29T00:08:20;99594.31;;;18.26;100.00
21203;BME280;10759;51.982;9.232;2023-07-29T00:10:48;99588.53;;;18.19;100.00
21203;BME280;10759;51.982;9.232;2023-07-29T00:13:16;99586.69;;;18.19;100.00
21203;BME280;10759;51.982;9.232;2023-07-29T00:15:48;99589.66;;;18.16;100.00
21203;BME280;10759;51.982;9.232;2023-07-29T00:18:17;99576.84;;;17.96;100.00
21203;BME280;10759;51.982;9.232;2023-07-29T00:20:46;99604.22;;;18.04;100.00
21203;BME280;10759;51.982;9.232;2023-07-29T00:23:14;99483.38;;;17.34;100.00
21203;BME280;10759;51.982;9.232;2023-07-29T00:25:42;99565.75;;;17.76;100.00
21203;BME280;10759;51.982;9.232;2023-07-29T00:28:11;99600.50;;;18.05;100.00
21203;BME280;10759;51.982;9.232;2023-07-29T00:30:40;99604.91;;;18.17;100.00
21203;BME280;10759;51.982;9.232;2023-07-29T00:33:08;99602.22;;;18.06;100.00
21203;BME280;10759;51.982;9.232;2023-07-29T00:35:39;99589.53;;;18.07;100.00
21203;BME280;10759;51.982;9.232;2023-07-29T00:38:07;99594.56;;;18.22;100.00
21203;BME280;10759;51.982;9.232;2023-07-29T00:40:36;99592.31;;;18.28;100.00
21203;BME280;10759;51.982;9.232;2023-07-29T00:43:04;99596.69;;;18.19;100.00
21203;BME280;10759;51.982;9.232;2023-07-29T00:45:35;99598.16;;;18.12;100.00
21203;BME280;10759;51.982;9.232;2023-07-29T00:48:04;99588.31;;;17.99;100.00
21203;BME280;10759;51.982;9.232;2023-07-29T00:50:32;99503.47;;;17.43;100.00
21203;BME280;10759;51.982;9.232;2023-07-29T00:53:02;99596.69;;;17.96;100.00
21203;BME280;10759;51.982;9.232;2023-07-29T00:55:32;99581.41;;;17.95;100.00
21203;BME280;10759;51.982;9.232;2023-07-29T00:58:00;99569.72;;;17.84;100.00
21203;BME280;10759;51.982;9.232;2023-07-29T01:00:32;99583.41;;;17.82;100.00
21203;BME280;10759;51.982;9.232;2023-07-29T01:03:03;99559.72;;;17.62;100.00
21203;BME280;10759;51.982;9.232;2023-07-29T01:05:36;99513.78;;;17.37;100.00
21203;BME280;10759;51.982;9.232;2023-07-29T01:08:14;99569.97;;;17.80;100.00
21203;BME280;10759;51.982;9.232;2023-07-29T01:11:05;99565.03;;;17.86;100.00
21203;BME280;10759;51.982;9.232;2023-07-29T01:13:41;99564.91;;;17.98;100.00
21203;BME280;10759;51.982;9.232;2023-07-29T01:16:17;99563.28;;;18.07;100.00
21203;BME280;10759;51.982;9.232;2023-07-29T01:18:48;99556.88;;;18.08;100.00
21203;BME280;10759;51.982;9.232;2023-07-29T01:21:17;99501.34;;;17.91;100.00
21203;BME280;10759;51.982;9.232;2023-07-29T01:23:46;99564.47;;;18.26;100.00
21203;BME280;10759;51.982;9.232;2023-07-29T01:26:15;99492.47;;;17.78;100.00
21203;BME280;10759;51.982;9.232;2023-07-29T01:28:43;99557.59;;;18.21;100.00
21203;BME280;10759;51.982;9.232;2023-07-29T01:31:14;99478.56;;;17.71;100.00
21203;BME280;10759;51.982;9.232;2023-07-29T01:33:52;99525.72;;;18.02;100.00
21203;BME280;10759;51.982;9.232;2023-07-29T01:36:22;99539.84;;;18.17;100.00
21203;BME280;10759;51.982;9.232;2023-07-29T01:38:56;99547.97;;;18.29;100.00
21203;BME280;10759;51.982;9.232;2023-07-29T01:41:26;99554.72;;;18.34;100.00
21203;BME280;10759;51.982;9.232;2023-07-29T01:43:56;99560.88;;;18.36;100.00
21203;BME280;10759;51.982;9.232;2023-07-29T01:46:25;99554.59;;;18.36;100.00
21203;BME280;10759;51.982;9.232;2023-07-29T01:48:53;99551.50;;;18.40;100.00
21203;BME280;10759;51.982;9.232;2023-07-29T01:51:22;99541.28;;;18.33;100.00
21203;BME280;10759;51.982;9.232;2023-07-29T01:53:50;99530.34;;;18.23;100.00
21203;BME280;10759;51.982;9.232;2023-07-29T01:56:19;99558.78;;;18.40;100.00
21203;BME280;10759;51.982;9.232;2023-07-29T01:58:52;99516.78;;;18.23;100.00
21203;BME280;10759;51.982;9.232;2023-07-29T02:01:21;99551.63;;;18.39;100.00
21203;BME280;10759;51.982;9.232;2023-07-29T02:03:49;99546.13;;;18.29;100.00
21203;BME280;10759;51.982;9.232;2023-07-29T02:06:23;99544.00;;;18.33;100.00
21203;BME280;10759;51.982;9.232;2023-07-29T02:08:53;99547.44;;;18.35;100.00
21203;BME280;10759;51.982;9.232;2023-07-29T02:11:23;99554.19;;;18.40;100.00
21203;BME280;10759;51.982;9.232;2023-07-29T02:13:55;99552.59;;;18.38;100.00
21203;BME280;10759;51.982;9.232;2023-07-29T02:16:24;99553.34;;;18.40;100.00
21203;BME280;10759;51.982;9.232;2023-07-29T02:18:52;99532.09;;;18.24;100.00
21203;BME280;10759;51.982;9.232;2023-07-29T02:21:22;99552.22;;;18.42;100.00
21203;BME280;10759;51.982;9.232;2023-07-29T02:23:51;99548.13;;;18.48;100.00
21203;BME280;10759;51.982;9.232;2023-07-29T02:26:19;99549.13;;;18.47;100.00
21203;BME280;10759;51.982;9.232;2023-07-29T02:28:49;99397.19;;;17.62;100.00
21203;BME280;10759;51.982;9.232;2023-07-29T02:31:19;99548.00;;;18.50;100.00
21203;BME280;10759;51.982;9.232;2023-07-29T02:33:49;99542.00;;;18.46;100.00
21203;BME280;10759;51.982;9.232;2023-07-29T02:36:18;99543.97;;;18.44;100.00
21203;BME280;10759;51.982;9.232;2023-07-29T02:38:47;99543.19;;;18.53;100.00
21203;BME280;10759;51.982;9.232;2023-07-29T02:41:15;99545.31;;;18.50;100.00
21203;BME280;10759;51.982;9.232;2023-07-29T02:43:47;99535.78;;;18.55;100.00
21203;BME280;10759;51.982;9.232;2023-07-29T02:46:17;99540.47;;;18.53;100.00
21203;BME280;10759;51.982;9.232;2023-07-29T02:48:45;99533.53;;;18.60;100.00
21203;BME280;10759;51.982;9.232;2023-07-29T02:51:14;99522.56;;;18.62;100.00
21203;BME280;10759;51.982;9.232;2023-07-29T02:53:42;99514.81;;;18.57;100.00
21203;BME280;10759;51.982;9.232;2023-07-29T02:56:10;99474.97;;;18.37;100.00
21203;BME280;10759;51.982;9.232;2023-07-29T02:58:38;99506.59;;;18.48;100.00
21203;BME280;10759;51.982;9.232;2023-07-29T03:01:07;99505.34;;;18.52;100.00
21203;BME280;10759;51.982;9.232;2023-07-29T03:03:39;99514.06;;;18.55;100.00
21203;BME280;10759;51.982;9.232;2023-07-29T03:06:09;99499.06;;;18.51;100.00
21203;BME280;10759;51.982;9.232;2023-07-29T03:08:38;99516.66;;;18.57;100.00
21203;BME280;10759;51.982;9.232;2023-07-29T03:11:07;99501.72;;;18.62;100.00
21203;BME280;10759;51.982;9.232;2023-07-29T03:13:36;99514.63;;;18.70;100.00
21203;BME280;10759;51.982;9.232;2023-07-29T03:16:05;99506.00;;;18.65;100.00
21203;BME280;10759;51.982;9.232;2023-07-29T03:18:34;99506.28;;;18.62;100.00
21203;BME280;10759;51.982;9.232;2023-07-29T03:21:04;99482.06;;;18.49;100.00
21203;BME280;10759;51.982;9.232;2023-07-29T03:23:33;99499.28;;;18.59;100.00
21203;BME280;10759;51.982;9.232;2023-07-29T03:26:03;99507.53;;;18.58;100.00
21203;BME280;10759;51.982;9.232;2023-07-29T03:28:38;99503.97;;;18.57;100.00
21203;BME280;10759;51.982;9.232;2023-07-29T03:31:07;99507.28;;;18.61;100.00
21203;BME280;10759;51.982;9.232;2023-07-29T03:33:36;99510.38;;;18.56;100.00
21203;BME280;10759;51.982;9.232;2023-07-29T03:36:06;99498.91;;;18.53;100.00
21203;BME280;10759;51.982;9.232;2023-07-29T03:38:34;99471.91;;;18.30;100.00
21203;BME280;10759;51.982;9.232;2023-07-29T03:41:07;99499.56;;;18.45;100.00
21203;BME280;10759;51.982;9.232;2023-07-29T03:43:36;99490.22;;;18.38;100.00
21203;BME280;10759;51.982;9.232;2023-07-29T03:46:05;99501.69;;;18.41;100.00
21203;BME280;10759;51.982;9.232;2023-07-29T03:48:39;99499.84;;;18.42;100.00
21203;BME280;10759;51.982;9.232;2023-07-29T03:51:08;99496.59;;;18.48;100.00
21203;BME280;10759;51.982;9.232;2023-07-29T03:53:37;99491.06;;;18.50;100.00
21203;BME280;10759;51.982;9.232;2023-07-29T03:56:05;99502.56;;;18.63;100.00
21203;BME280;10759;51.982;9.232;2023-07-29T03:58:33;99504.09;;;18.56;100.00
21203;BME280;10759;51.982;9.232;2023-07-29T04:01:01;99507.78;;;18.55;100.00
21203;BME280;10759;51.982;9.232;2023-07-29T04:03:33;99489.94;;;18.52;100.00
21203;BME280;10759;51.982;9.232;2023-07-29T04:06:02;99488.72;;;18.45;100.00
21203;BME280;10759;51.982;9.232;2023-07-29T04:08:32;99490.94;;;18.51;100.00
21203;BME280;10759;51.982;9.232;2023-07-29T04:11:00;99494.75;;;18.49;100.00
21203;BME280;10759;51.982;9.232;2023-07-29T04:13:28;99496.75;;;18.47;100.00
21203;BME280;10759;51.982;9.232;2023-07-29T04:15:57;99491.59;;;18.43;100.00
21203;BME280;10759;51.982;9.232;2023-07-29T04:18:25;99416.38;;;18.13;100.00
21203;BME280;10759;51.982;9.232;2023-07-29T04:20:53;99494.50;;;18.52;100.00
21203;BME280;10759;51.982;9.232;2023-07-29T04:23:21;99339.19;;;17.64;100.00
21203;BME280;10759;51.982;9.232;2023-07-29T04:25:51;99484.97;;;18.57;100.00
21203;BME280;10759;51.982;9.232;2023-07-29T04:28:19;99490.41;;;18.57;100.00
21203;BME280;10759;51.982;9.232;2023-07-29T04:30:48;99483.84;;;18.60;100.00
21203;BME280;10759;51.982;9.232;2023-07-29T04:33:16;99488.38;;;18.71;100.00
21203;BME280;10759;51.982;9.232;2023-07-29T04:35:45;99485.66;;;18.71;100.00
21203;BME280;10759;51.982;9.232;2023-07-29T04:38:13;99480.94;;;18.73;100.00
21203;BME280;10759;51.982;9.232;2023-07-29T04:40:42;99474.19;;;18.67;100.00
21203;BME280;10759;51.982;9.232;2023-07-29T04:43:11;99442.34;;;18.48;100.00
21203;BME280;10759;51.982;9.232;2023-07-29T04:45:42;99407.94;;;18.28;100.00
21203;BME280;10759;51.982;9.232;2023-07-29T04:48:11;99475.78;;;18.70;100.00
21203;BME280;10759;51.982;9.232;2023-07-29T04:50:40;99463.44;;;18.77;100.00
21203;BME280;10759;51.982;9.232;2023-07-29T04:53:08;99472.31;;;18.79;100.00
21203;BME280;10759;51.982;9.232;2023-07-29T04:55:36;99468.59;;;18.80;100.00
21203;BME280;10759;51.982;9.232;2023-07-29T04:58:04;99466.88;;;18.79;100.00
21203;BME280;10759;51.982;9.232;2023-07-29T05:00:34;99458.53;;;18.71;100.00
21203;BME280;10759;51.982;9.232;2023-07-29T05:03:02;99478.09;;;18.85;100.00
21203;BME280;10759;51.982;9.232;2023-07-29T05:05:31;99470.06;;;18.84;100.00
21203;BME280;10759;51.982;9.232;2023-07-29T05:07:59;99470.34;;;18.81;100.00
21203;BME280;10759;51.982;9.232;2023-07-29T05:10:27;99472.69;;;18.74;100.00
21203;BME280;10759;51.982;9.232;2023-07-29T05:12:56;99459.78;;;18.66;100.00
21203;BME280;10759;51.982;9.232;2023-07-29T05:15:25;99445.88;;;18.60;100.00
21203;BME280;10759;51.982;9.232;2023-07-29T05:17:55;99463.63;;;18.64;100.00
21203;BME280;10759;51.982;9.232;2023-07-29T05:20:23;99455.31;;;18.44;100.00
21203;BME280;10759;51.982;9.232;2023-07-29T05:22:51;99456.31;;;18.43;100.00
21203;BME280;10759;51.982;9.232;2023-07-29T05:25:20;99459.09;;;18.53;100.00
21203;BME280;10759;51.982;9.232;2023-07-29T05:27:48;99461.34;;;18.69;100.00
21203;BME280;10759;51.982;9.232;2023-07-29T05:30:17;99410.63;;;18.39;100.00
21203;BME280;10759;51.982;9.232;2023-07-29T05:32:45;99446.72;;;18.60;100.00
21203;BME280;10759;51.982;9.232;2023-07-29T05:35:15;99464.44;;;18.76;100.00
21203;BME280;10759;51.982;9.232;2023-07-29T05:37:44;99460.72;;;18.77;100.00
21203;BME280;10759;51.982;9.232;2023-07-29T05:40:12;99412.13;;;18.53;100.00
21203;BME280;10759;51.982;9.232;2023-07-29T05:42:41;99457.25;;;18.75;100.00
21203;BME280;10759;51.982;9.232;2023-07-29T05:45:09;99457.44;;;18.62;100.00
21203;BME280;10759;51.982;9.232;2023-07-29T05:47:38;99451.09;;;18.73;100.00
21203;BME280;10759;51.982;9.232;2023-07-29T05:50:07;99430.38;;;18.51;100.00
21203;BME280;10759;51.982;9.232;2023-07-29T05:52:37;99393.16;;;18.32;100.00
21203;BME280;10759;51.982;9.232;2023-07-29T05:55:06;99453.81;;;18.73;100.00
21203;BME280;10759;51.982;9.232;2023-07-29T05:57:35;99456.88;;;18.79;100.00
21203;BME280;10759;51.982;9.232;2023-07-29T06:00:07;99362.13;;;18.24;100.00
21203;BME280;10759;51.982;9.232;2023-07-29T06:02:41;99384.63;;;18.36;100.00
21203;BME280;10759;51.982;9.232;2023-07-29T06:05:14;99450.88;;;18.76;100.00
21203;BME280;10759;51.982;9.232;2023-07-29T06:07:44;99453.59;;;18.76;100.00
21203;BME280;10759;51.982;9.232;2023-07-29T06:10:15;99467.06;;;18.87;100.00
21203;BME280;10759;51.982;9.232;2023-07-29T06:12:45;99463.38;;;18.88;100.00
21203;BME280;10759;51.982;9.232;2023-07-29T06:15:14;99455.69;;;18.93;100.00
21203;BME280;10759;51.982;9.232;2023-07-29T06:17:42;99421.50;;;18.70;100.00
21203;BME280;10759;51.982;9.232;2023-07-29T06:20:11;99454.28;;;18.99;100.00
21203;BME280;10759;51.982;9.232;2023-07-29T06:22:40;99460.00;;;19.26;100.00
21203;BME280;10759;51.982;9.232;2023-07-29T06:25:10;99464.16;;;19.30;100.00
21203;BME280;10759;51.982;9.232;2023-07-29T06:27:38;99451.19;;;19.44;100.00
21203;BME280;10759;51.982;9.232;2023-07-29T06:30:07;99464.09;;;19.51;100.00
21203;BME280;10759;51.982;9.232;2023-07-29T06:32:36;99352.34;;;18.85;100.00
21203;BME280;10759;51.982;9.232;2023-07-29T06:35:05;99460.41;;;19.52;100.00
21203;BME280;10759;51.982;9.232;2023-07-29T06:37:33;99480.50;;;19.71;100.00
21203;BME280;10759;51.982;9.232;2023-07-29T06:40:01;99476.38;;;19.77;100.00
21203;BME280;10759;51.982;9.232;2023-07-29T06:42:31;99476.19;;;19.68;100.00
21203;BME280;10759;51.982;9.232;2023-07-29T06:44:59;99473.59;;;19.67;100.00
21203;BME280;10759;51.982;9.232;2023-07-29T06:47:28;99486.59;;;19.63;100.00
21203;BME280;10759;51.982;9.232;2023-07-29T06:49:56;99479.53;;;19.72;100.00
21203;BME280;10759;51.982;9.232;2023-07-29T06:52:24;99460.84;;;19.58;100.00
21203;BME280;10759;51.982;9.232;2023-07-29T06:54:52;99359.91;;;19.12;100.00
21203;BME280;10759;51.982;9.232;2023-07-29T06:57:21;99471.09;;;19.75;100.00
21203;BME280;10759;51.982;9.232;2023-07-29T06:59:50;99479.22;;;19.75;100.00
21203;BME280;10759;51.982;9.232;2023-07-29T07:02:18;99453.59;;;19.68;100.00
21203;BME280;10759;51.982;9.232;2023-07-29T07:04:47;99466.22;;;19.88;100.00
21203;BME280;10759;51.982;9.232;2023-07-29T07:07:15;99467.84;;;20.01;100.00
21203;BME280;10759;51.982;9.232;2023-07-29T07:09:44;99453.81;;;19.95;100.00
21203;BME280;10759;51.982;9.232;2023-07-29T07:12:12;99467.28;;;20.07;100.00
21203;BME280;10759;51.982;9.232;2023-07-29T07:14:40;99468.28;;;20.15;100.00
21203;BME280;10759;51.982;9.232;2023-07-29T07:17:10;99474.31;;;20.09;100.00
21203;BME280;10759;51.982;9.232;2023-07-29T07:19:39;99461.44;;;20.11;100.00
21203;BME280;10759;51.982;9.232;2023-07-29T07:22:08;99471.91;;;20.26;100.00
21203;BME280;10759;51.982;9.232;2023-07-29T07:24:37;99432.81;;;20.17;100.00
21203;BME280;10759;51.982;9.232;2023-07-29T07:27:06;99464.84;;;20.43;100.00
21203;BME280;10759;51.982;9.232;2023-07-29T07:29:34;99466.44;;;20.45;100.00
21203;BME280;10759;51.982;9.232;2023-07-29T07:32:03;99473.31;;;20.40;100.00
21203;BME280;10759;51.982;9.232;2023-07-29T07:34:34;99471.44;;;20.11;100.00
21203;BME280;10759;51.982;9.232;2023-07-29T07:37:02;99473.03;;;20.23;100.00
21203;BME280;10759;51.982;9.232;2023-07-29T07:39:31;99481.47;;;20.20;100.00
21203;BME280;10759;51.982;9.232;2023-07-29T07:41:59;99478.19;;;20.26;100.00
21203;BME280;10759;51.982;9.232;2023-07-29T07:44:28;99479.75;;;20.19;100.00
21203;BME280;10759;51.982;9.232;2023-07-29T07:46:56;99483.47;;;20.28;100.00
21203;BME280;10759;51.982;9.232;2023-07-29T07:49:25;99479.19;;;20.35;100.00
21203;BME280;10759;51.982;9.232;2023-07-29T07:51:54;99484.34;;;20.38;100.00
21203;BME280;10759;51.982;9.232;2023-07-29T07:54:23;99500.94;;;20.45;100.00
21203;BME280;10759;51.982;9.232;2023-07-29T07:56:51;99479.78;;;20.38;100.00
21203;BME280;10759;51.982;9.232;2023-07-29T07:59:19;99489.94;;;20.36;100.00
21203;BME280;10759;51.982;9.232;2023-07-29T08:01:47;99491.81;;;20.46;100.00
21203;BME280;10759;51.982;9.232;2023-07-29T08:04:15;99480.31;;;20.32;100.00
21203;BME280;10759;51.982;9.232;2023-07-29T08:06:43;99477.59;;;20.42;100.00
21203;BME280;10759;51.982;9.232;2023-07-29T08:09:12;99349.22;;;19.80;100.00
21203;BME280;10759;51.982;9.232;2023-07-29T08:11:41;99483.09;;;20.62;100.00
21203;BME280;10759;51.982;9.232;2023-07-29T08:14:09;99479.34;;;20.53;100.00
21203;BME280;10759;51.982;9.232;2023-07-29T08:16:37;99483.91;;;20.43;100.00
21203;BME280;10759;51.982;9.232;2023-07-29T08:19:05;99450.41;;;20.23;100.00
21203;BME280;10759;51.982;9.232;2023-07-29T08:21:33;99477.22;;;20.56;100.00
21203;BME280;10759;51.982;9.232;2023-07-29T08:24:01;99468.91;;;20.58;100.00
21203;BME280;10759;51.982;9.232;2023-07-29T08:26:31;99489.81;;;20.57;100.00
21203;BME280;10759;51.982;9.232;2023-07-29T08:28:59;99486.41;;;20.55;100.00
21203;BME280;10759;51.982;9.232;2023-07-29T08:31:27;99463.44;;;20.29;100.00
21203;BME280;10759;51.982;9.232;2023-07-29T08:33:55;99465.75;;;20.53;100.00
21203;BME280;10759;51.982;9.232;2023-07-29T08:36:23;99498.38;;;20.82;100.00
21203;BME280;10759;51.982;9.232;2023-07-29T08:38:52;99501.38;;;20.89;100.00
21203;BME280;10759;51.982;9.232;2023-07-29T08:41:24;99504.38;;;21.05;100.00
21203;BME280;10759;51.982;9.232;2023-07-29T08:44:01;99497.19;;;21.14;100.00
21203;BME280;10759;51.982;9.232;2023-07-29T08:46:30;99508.97;;;21.14;100.00
21203;BME280;10759;51.982;9.232;2023-07-29T08:48:59;99486.72;;;21.09;100.00
21203;BME280;10759;51.982;9.232;2023-07-29T08:51:29;99472.13;;;21.10;100.00
21203;BME280;10759;51.982;9.232;2023-07-29T08:53:59;99499.97;;;21.51;100.00
21203;BME280;10759;51.982;9.232;2023-07-29T08:56:28;99510.13;;;21.59;100.00
21203;BME280;10759;51.982;9.232;2023-07-29T08:58:59;99509.16;;;21.50;100.00
21203;BME280;10759;51.982;9.232;2023-07-29T09:01:29;99517.53;;;21.39;100.00
21203;BME280;10759;51.982;9.232;2023-07-29T09:03:58;99498.28;;;21.40;100.00
21203;BME280;10759;51.982;9.232;2023-07-29T09:06:27;99508.03;;;21.33;100.00
21203;BME280;10759;51.982;9.232;2023-07-29T09:08:55;99429.28;;;21.02;100.00
21203;BME280;10759;51.982;9.232;2023-07-29T09:11:24;99504.72;;;21.49;100.00
21203;BME280;10759;51.982;9.232;2023-07-29T09:13:52;99505.47;;;21.32;100.00
21203;BME280;10759;51.982;9.232;2023-07-29T09:16:22;99507.75;;;21.36;100.00
21203;BME280;10759;51.982;9.232;2023-07-29T09:18:50;99502.22;;;21.56;100.00
21203;BME280;10759;51.982;9.232;2023-07-29T09:21:23;99396.34;;;20.96;100.00
21203;BME280;10759;51.982;9.232;2023-07-29T09:23:51;99496.53;;;22.04;100.00
21203;BME280;10759;51.982;9.232;2023-07-29T09:26:22;99488.13;;;22.25;100.00
21203;BME280;10759;51.982;9.232;2023-07-29T09:28:52;99491.59;;;22.18;100.00
21203;BME280;10759;51.982;9.232;2023-07-29T09:31:24;99483.91;;;22.67;100.00
21203;BME280;10759;51.982;9.232;2023-07-29T09:33:56;99492.50;;;23.16;100.00
21203;BME280;10759;51.982;9.232;2023-07-29T09:36:27;99451.66;;;23.41;99.08
21203;BME280;10759;51.982;9.232;2023-07-29T09:38:57;99457.03;;;23.58;95.83
21203;BME280;10759;51.982;9.232;2023-07-29T09:41:27;99359.06;;;22.77;94.33
21203;BME280;10759;51.982;9.232;2023-07-29T09:43:56;99469.94;;;22.96;97.93
21203;BME280;10759;51.982;9.232;2023-07-29T09:46:32;99481.03;;;22.50;97.91
21203;BME280;10759;51.982;9.232;2023-07-29T09:49:02;99481.09;;;22.41;97.55
21203;BME280;10759;51.982;9.232;2023-07-29T09:51:37;99480.88;;;22.52;100.00
21203;BME280;10759;51.982;9.232;2023-07-29T09:54:07;99440.16;;;22.23;99.08
21203;BME280;10759;51.982;9.232;2023-07-29T09:56:39;99464.31;;;22.18;100.00
21203;BME280;10759;51.982;9.232;2023-07-29T09:59:09;99498.88;;;22.63;98.13
21203;BME280;10759;51.982;9.232;2023-07-29T10:01:39;99405.03;;;21.92;96.07
21203;BME280;10759;51.982;9.232;2023-07-29T10:04:08;99438.88;;;21.99;94.48
21203;BME280;10759;51.982;9.232;2023-07-29T10:09:11;99499.88;;;22.26;97.40
21203;BME280;10759;51.982;9.232;2023-07-29T10:11:40;99494.59;;;22.60;97.25
21203;BME280;10759;51.982;9.232;2023-07-29T10:14:09;99495.81;;;23.02;95.68
21203;BME280;10759;51.982;9.232;2023-07-29T10:16:40;99498.06;;;22.88;91.76
21203;BME280;10759;51.982;9.232;2023-07-29T10:19:09;99466.06;;;22.55;90.84
21203;BME280;10759;51.982;9.232;2023-07-29T10:21:41;99488.19;;;22.69;89.63
21203;BME280;10759;51.982;9.232;2023-07-29T10:24:15;99467.50;;;22.49;88.32
21203;BME280;10759;51.982;9.232;2023-07-29T10:26:46;99485.66;;;22.76;88.10
21203;BME280;10759;51.982;9.232;2023-07-29T10:29:16;99480.19;;;22.76;85.14
21203;BME280;10759;51.982;9.232;2023-07-29T10:31:47;99483.91;;;22.67;86.81
21203;BME280;10759;51.982;9.232;2023-07-29T10:34:16;99412.00;;;22.22;86.44
21203;BME280;10759;51.982;9.232;2023-07-29T10:36:45;99488.94;;;22.80;85.62
21203;BME280;10759;51.982;9.232;2023-07-29T10:39:15;99492.84;;;22.77;85.46
21203;BME280;10759;51.982;9.232;2023-07-29T10:41:56;99495.28;;;22.44;83.13
21203;BME280;10759;51.982;9.232;2023-07-29T10:44:47;99503.34;;;22.18;83.41
21203;BME280;10759;51.982;9.232;2023-07-29T10:47:19;99490.78;;;22.35;85.85
21203;BME280;10759;51.982;9.232;2023-07-29T10:49:50;99365.31;;;21.72;80.45
21203;BME280;10759;51.982;9.232;2023-07-29T10:52:32;99490.97;;;22.42;77.60
21203;BME280;10759;51.982;9.232;2023-07-29T10:55:23;99488.94;;;22.80;76.76
21203;BME280;10759;51.982;9.232;2023-07-29T10:58:05;99448.78;;;22.72;78.48
21203;BME280;10759;51.982;9.232;2023-07-29T11:00:33;99469.28;;;23.20;76.58
21203;BME280;10759;51.982;9.232;2023-07-29T11:03:05;99421.41;;;23.08;78.17
21203;BME280;10759;51.982;9.232;2023-07-29T11:05:46;99484.75;;;23.38;72.69
21203;BME280;10759;51.982;9.232;2023-07-29T11:08:23;99481.03;;;23.39;74.95
21203;BME280;10759;51.982;9.232;2023-07-29T11:11:02;99454.41;;;23.49;71.34
21203;BME280;10759;51.982;9.232;2023-07-29T11:13:33;99490.69;;;23.59;69.81
21203;BME280;10759;51.982;9.232;2023-07-29T11:16:01;99497.97;;;23.76;73.99
21203;BME280;10759;51.982;9.232;2023-07-29T11:18:32;99401.34;;;23.25;68.45
21203;BME280;10759;51.982;9.232;2023-07-29T11:21:02;99492.88;;;23.82;70.27
21203;BME280;10759;51.982;9.232;2023-07-29T11:23:32;99477.31;;;23.82;70.64
21203;BME280;10759;51.982;9.232;2023-07-29T11:26:02;99444.47;;;23.82;67.67
21203;BME280;10759;51.982;9.232;2023-07-29T11:28:38;99503.19;;;24.04;72.22
21203;BME280;10759;51.982;9.232;2023-07-29T11:31:06;99501.44;;;23.87;70.79
21203;BME280;10759;51.982;9.232;2023-07-29T11:33:39;99509.47;;;23.80;70.45
21203;BME280;10759;51.982;9.232;2023-07-29T11:36:17;99413.78;;;23.20;68.39
21203;BME280;10759;51.982;9.232;2023-07-29T11:38:46;99514.25;;;23.60;76.47
21203;BME280;10759;51.982;9.232;2023-07-29T11:41:19;99506.81;;;23.70;67.61
21203;BME280;10759;51.982;9.232;2023-07-29T11:43:49;99502.19;;;23.71;68.57
21203;BME280;10759;51.982;9.232;2023-07-29T11:46:21;99497.47;;;23.81;66.70
21203;BME280;10759;51.982;9.232;2023-07-29T11:48:53;99463.38;;;23.67;66.62
21203;BME280;10759;51.982;9.232;2023-07-29T11:51:22;99495.59;;;23.82;67.78
21203;BME280;10759;51.982;9.232;2023-07-29T11:53:51;99487.03;;;23.76;68.34
21203;BME280;10759;51.982;9.232;2023-07-29T11:56:20;99484.88;;;23.96;70.62
21203;BME280;10759;51.982;9.232;2023-07-29T11:58:49;99389.91;;;23.30;68.87
21203;BME280;10759;51.982;9.232;2023-07-29T12:01:17;99492.97;;;23.72;68.83
21203;BME280;10759;51.982;9.232;2023-07-29T12:03:47;99412.13;;;23.27;74.11
21203;BME280;10759;51.982;9.232;2023-07-29T12:06:17;99488.09;;;23.92;67.88
21203;BME280;10759;51.982;9.232;2023-07-29T12:08:45;99493.66;;;24.08;67.51
21203;BME280;10759;51.982;9.232;2023-07-29T12:11:14;99433.03;;;23.78;69.02
21203;BME280;10759;51.982;9.232;2023-07-29T12:13:44;99499.47;;;24.21;68.58
21203;BME280;10759;51.982;9.232;2023-07-29T12:16:16;99479.31;;;24.31;69.30
21203;BME280;10759;51.982;9.232;2023-07-29T12:18:45;99493.56;;;24.34;66.96
21203;BME280;10759;51.982;9.232;2023-07-29T12:21:18;99462.16;;;23.96;65.52
21203;BME280;10759;51.982;9.232;2023-07-29T12:23:47;99485.78;;;24.05;69.24
21203;BME280;10759;51.982;9.232;2023-07-29T12:26:15;99479.66;;;24.28;70.32
21203;BME280;10759;51.982;9.232;2023-07-29T12:28:46;99411.50;;;23.84;69.88
21203;BME280;10759;51.982;9.232;2023-07-29T12:31:14;99472.31;;;24.28;71.29
21203;BME280;10759;51.982;9.232;2023-07-29T12:33:43;99473.50;;;24.17;72.33
21203;BME280;10759;51.982;9.232;2023-07-29T12:36:11;99470.78;;;24.34;72.21
21203;BME280;10759;51.982;9.232;2023-07-29T12:38:44;99416.63;;;23.78;70.43
21203;BME280;10759;51.982;9.232;2023-07-29T12:41:13;99359.88;;;23.38;67.68
21203;BME280;10759;51.982;9.232;2023-07-29T12:43:41;99482.69;;;24.08;68.14
21203;BME280;10759;51.982;9.232;2023-07-29T12:46:09;99427.22;;;23.82;70.37
21203;BME280;10759;51.982;9.232;2023-07-29T12:48:38;99475.53;;;24.24;68.67
21203;BME280;10759;51.982;9.232;2023-07-29T12:51:06;99473.16;;;24.29;70.53
21203;BME280;10759;51.982;9.232;2023-07-29T12:53:35;99471.91;;;24.07;71.82
21203;BME280;10759;51.982;9.232;2023-07-29T12:56:05;99473.44;;;23.93;70.52
21203;BME280;10759;51.982;9.232;2023-07-29T12:58:34;99475.81;;;23.88;70.13
21203;BME280;10759;51.982;9.232;2023-07-29T13:01:02;99477.00;;;23.85;68.56
21203;BME280;10759;51.982;9.232;2023-07-29T13:03:31;99483.78;;;23.73;68.01
21203;BME280;10759;51.982;9.232;2023-07-29T13:05:59;99460.72;;;23.75;70.90
21203;BME280;10759;51.982;9.232;2023-07-29T13:08:29;99479.47;;;24.05;70.08